createdAt,value
2018-08-28T00:00:02.401Z,17.98
2018-08-28T00:01:02.365Z,18.00
2018-08-28T00:02:02.349Z,17.95
2018-08-28T00:03:02.333Z,17.88
2018-08-28T00:04:02.321Z,17.90
2018-08-28T00:05:02.302Z,17.82
2018-08-28T00:06:02.285Z,17.91
2018-08-28T00:07:02.280Z,17.82
2018-08-28T00:08:02.249Z,17.87
2018-08-28T00:09:02.231Z,17.88
2018-08-28T00:10:02.216Z,17.93
2018-08-28T00:11:02.198Z,17.98
2018-08-28T00:12:02.182Z,17.98
2018-08-28T00:13:02.165Z,17.88
2018-08-28T00:14:02.149Z,17.87
2018-08-28T00:15:02.136Z,17.86
2018-08-28T00:16:02.129Z,17.87
2018-08-28T00:17:02.139Z,17.94
2018-08-28T00:18:02.084Z,17.93
2018-08-28T00:19:02.065Z,17.93
2018-08-28T00:20:02.049Z,17.90
2018-08-28T00:21:02.033Z,17.93
2018-08-28T00:22:02.045Z,17.93
2018-08-28T00:23:01.999Z,17.95
2018-08-28T00:24:01.981Z,17.98
2018-08-28T00:25:01.965Z,17.91
2018-08-28T00:26:01.948Z,17.88
2018-08-28T00:27:01.938Z,17.95
2018-08-28T00:28:01.917Z,17.95
2018-08-28T00:29:01.899Z,17.94
2018-08-28T00:30:01.884Z,17.88
2018-08-28T00:31:01.864Z,17.94
2018-08-28T00:32:01.849Z,17.90
2018-08-28T00:33:01.832Z,17.88
2018-08-28T00:34:01.844Z,17.88
2018-08-28T00:35:01.801Z,18.00
2018-08-28T00:36:01.783Z,18.02
2018-08-28T00:37:01.765Z,17.94
2018-08-28T00:38:01.748Z,17.91
2018-08-28T00:39:01.735Z,17.87
2018-08-28T00:40:01.715Z,17.90
2018-08-28T00:41:01.699Z,17.86
2018-08-28T00:42:01.681Z,17.95
2018-08-28T00:43:01.664Z,17.91
2018-08-28T00:44:01.647Z,17.97
2018-08-28T00:45:01.635Z,17.95
2018-08-28T00:46:01.615Z,17.88
2018-08-28T00:47:01.598Z,17.93
2018-08-28T00:48:01.590Z,17.94
2018-08-28T00:49:01.565Z,17.90
2018-08-28T00:50:01.550Z,17.93
2018-08-28T00:51:01.536Z,17.95
2018-08-28T00:52:01.515Z,17.90
2018-08-28T00:53:01.496Z,17.95
2018-08-28T00:54:01.480Z,17.95
2018-08-28T00:55:01.464Z,17.98
2018-08-28T00:56:01.447Z,17.94
2018-08-28T00:57:01.430Z,17.98
2018-08-28T00:58:01.412Z,17.90
2018-08-28T00:59:01.398Z,17.90
2018-08-28T01:00:01.380Z,17.94
2018-08-28T01:01:01.364Z,18.02
2018-08-28T01:02:01.346Z,17.93
2018-08-28T01:03:01.335Z,17.88
2018-08-28T01:04:01.317Z,17.95
2018-08-28T01:05:01.296Z,17.97
2018-08-28T01:06:01.280Z,17.90
2018-08-28T01:07:01.263Z,17.90
2018-08-28T01:08:01.247Z,17.87
2018-08-28T01:09:01.230Z,17.95
2018-08-28T01:10:01.212Z,17.93
2018-08-28T01:11:01.198Z,18.02
2018-08-28T01:12:01.179Z,17.91
2018-08-28T01:13:01.163Z,17.97
2018-08-28T01:14:01.152Z,17.93
2018-08-28T01:15:01.130Z,17.87
2018-08-28T01:16:01.119Z,17.87
2018-08-28T01:17:01.099Z,17.97
2018-08-28T01:18:01.080Z,17.94
2018-08-28T01:19:01.063Z,17.97
2018-08-28T01:20:01.048Z,17.88
2018-08-28T01:21:01.046Z,17.91
2018-08-28T01:22:01.011Z,17.94
2018-08-28T01:23:00.996Z,17.95
2018-08-28T01:24:00.980Z,17.94
2018-08-28T01:25:00.965Z,17.95
2018-08-28T01:26:00.945Z,18.03
2018-08-28T01:27:00.931Z,17.97
2018-08-28T01:28:00.912Z,18.00
2018-08-28T01:29:00.897Z,17.98
2018-08-28T01:30:00.878Z,17.93
2018-08-28T01:31:00.866Z,18.00
2018-08-28T01:32:00.852Z,18.03
2018-08-28T01:33:00.831Z,18.00
2018-08-28T01:34:00.813Z,17.93
2018-08-28T01:35:00.800Z,17.94
2018-08-28T01:36:00.779Z,17.95
2018-08-28T01:37:00.760Z,17.98
2018-08-28T01:38:00.745Z,17.93
2018-08-28T01:39:00.733Z,17.94
2018-08-28T01:40:00.712Z,18.00
2018-08-28T01:41:00.697Z,17.94
2018-08-28T01:42:00.678Z,18.00
2018-08-28T01:43:00.663Z,18.03
2018-08-28T01:44:00.645Z,17.91
2018-08-28T01:45:00.627Z,17.91
2018-08-28T01:46:00.612Z,17.91
2018-08-28T01:47:00.596Z,17.94
2018-08-28T01:48:00.579Z,17.93
2018-08-28T01:49:00.560Z,17.87
2018-08-28T01:50:00.546Z,17.95
2018-08-28T01:51:00.528Z,17.95
2018-08-28T01:52:00.512Z,17.90
2018-08-28T01:53:00.495Z,17.86
2018-08-28T01:54:00.484Z,17.91
2018-08-28T01:55:00.465Z,18.00
2018-08-28T01:56:00.445Z,17.90
2018-08-28T01:57:00.428Z,17.94
2018-08-28T01:58:00.411Z,17.87
2018-08-28T01:59:00.396Z,18.00
2018-08-28T02:00:00.378Z,17.84
2018-08-28T02:01:00.360Z,17.90
2018-08-28T02:02:00.353Z,17.88
2018-08-28T02:03:00.327Z,17.95
2018-08-28T02:04:00.317Z,17.87
2018-08-28T02:05:00.296Z,17.95
2018-08-28T02:06:00.280Z,17.90
2018-08-28T02:07:00.266Z,17.87
2018-08-28T02:08:00.244Z,17.91
2018-08-28T02:09:00.228Z,17.90
2018-08-28T02:10:00.211Z,17.84
2018-08-28T02:11:00.197Z,17.98
2018-08-28T02:12:00.177Z,17.90
2018-08-28T02:13:00.211Z,17.88
2018-08-28T02:14:00.145Z,17.93
2018-08-28T02:15:00.137Z,17.90
2018-08-28T02:16:00.112Z,17.88
2018-08-28T02:17:00.094Z,17.90
2018-08-28T02:18:00.079Z,17.82
2018-08-28T02:19:00.065Z,17.82
2018-08-28T02:20:00.045Z,17.94
2018-08-28T02:21:00.027Z,17.80
2018-08-28T02:22:00.010Z,17.88
2018-08-28T02:22:59.993Z,17.87
2018-08-28T02:23:59.978Z,17.90
2018-08-28T02:24:59.959Z,17.84
2018-08-28T02:25:59.944Z,17.87
2018-08-28T02:26:59.927Z,17.90
2018-08-28T02:27:59.921Z,17.87
2018-08-28T02:28:59.893Z,17.88
2018-08-28T02:29:59.878Z,17.86
2018-08-28T02:30:59.859Z,17.78
2018-08-28T02:31:59.844Z,17.76
2018-08-28T02:32:59.825Z,17.82
2018-08-28T02:33:59.811Z,17.78
2018-08-28T02:34:59.794Z,17.82
2018-08-28T02:35:59.776Z,17.79
2018-08-28T02:36:59.758Z,17.76
2018-08-28T02:37:59.751Z,17.80
2018-08-28T02:38:59.725Z,17.90
2018-08-28T02:39:59.709Z,17.84
2018-08-28T02:40:59.692Z,17.79
2018-08-28T02:41:59.675Z,17.82
2018-08-28T02:42:59.662Z,17.80
2018-08-28T02:43:59.644Z,17.82
2018-08-28T02:44:59.626Z,17.73
2018-08-28T02:45:59.608Z,17.71
2018-08-28T02:46:59.595Z,17.73
2018-08-28T02:47:59.574Z,17.73
2018-08-28T02:48:59.564Z,17.75
2018-08-28T02:49:59.541Z,17.65
2018-08-28T02:50:59.524Z,17.65
2018-08-28T02:51:59.507Z,17.69
2018-08-28T02:52:59.491Z,17.68
2018-08-28T02:53:59.475Z,17.68
2018-08-28T02:54:59.457Z,17.68
2018-08-28T02:55:59.467Z,17.59
2018-08-28T02:56:59.426Z,17.60
2018-08-28T02:57:59.407Z,17.65
2018-08-28T02:58:59.391Z,17.63
2018-08-28T02:59:59.373Z,17.60
2018-08-28T03:00:59.357Z,17.57
2018-08-28T03:01:59.352Z,17.68
2018-08-28T03:02:59.428Z,17.66
2018-08-28T03:03:59.306Z,17.65
2018-08-28T03:04:59.289Z,17.59
2018-08-28T03:05:59.271Z,17.65
2018-08-28T03:06:59.256Z,17.63
2018-08-28T03:07:59.239Z,17.65
2018-08-28T03:08:59.221Z,17.69
2018-08-28T03:09:59.210Z,17.60
2018-08-28T03:10:59.189Z,17.57
2018-08-28T03:11:59.174Z,17.66
2018-08-28T03:12:59.155Z,17.59
2018-08-28T03:13:59.138Z,17.56
2018-08-28T03:14:59.121Z,17.57
2018-08-28T03:15:59.175Z,17.54
2018-08-28T03:16:59.091Z,17.56
2018-08-28T03:17:59.071Z,17.57
2018-08-28T03:18:59.056Z,17.60
2018-08-28T03:19:59.041Z,17.56
2018-08-28T03:20:59.019Z,17.60
2018-08-28T03:21:59.002Z,17.63
2018-08-28T03:22:58.987Z,17.56
2018-08-28T03:23:58.986Z,17.56
2018-08-28T03:24:58.974Z,17.56
2018-08-28T03:25:58.937Z,17.66
2018-08-28T03:26:58.920Z,17.68
2018-08-28T03:27:58.903Z,17.57
2018-08-28T03:28:58.891Z,17.65
2018-08-28T03:29:58.869Z,17.57
2018-08-28T03:30:58.851Z,17.69
2018-08-28T03:31:58.836Z,17.68
2018-08-28T03:32:58.823Z,17.66
2018-08-28T03:33:58.801Z,17.71
2018-08-28T03:34:58.784Z,17.71
2018-08-28T03:35:58.768Z,17.68
2018-08-28T03:36:58.750Z,17.68
2018-08-28T03:37:58.734Z,17.72
2018-08-28T03:38:58.717Z,17.69
2018-08-28T03:39:58.701Z,17.68
2018-08-28T03:40:58.682Z,17.69
2018-08-28T03:41:58.666Z,17.72
2018-08-28T03:42:58.652Z,17.78
2018-08-28T03:43:58.633Z,17.73
2018-08-28T03:44:58.617Z,17.73
2018-08-28T03:45:58.598Z,17.69
2018-08-28T03:46:58.582Z,17.71
2018-08-28T03:47:58.565Z,17.66
2018-08-28T03:48:58.599Z,17.68
2018-08-28T03:49:58.536Z,17.69
2018-08-28T03:50:58.516Z,17.68
2018-08-28T03:51:58.500Z,17.72
2018-08-28T03:52:58.483Z,17.76
2018-08-28T03:53:58.518Z,17.73
2018-08-28T03:54:58.447Z,17.73
2018-08-28T03:55:58.431Z,17.69
2018-08-28T03:56:58.414Z,17.68
2018-08-28T03:57:58.406Z,17.71
2018-08-28T03:58:58.380Z,17.73
2018-08-28T03:59:58.364Z,17.72
2018-08-28T04:00:58.347Z,17.75
2018-08-28T04:01:58.329Z,17.78
2018-08-28T04:02:58.316Z,17.76
2018-08-28T04:03:58.296Z,17.78
2018-08-28T04:04:58.281Z,17.79
2018-08-28T04:05:58.264Z,17.78
2018-08-28T04:06:58.246Z,17.82
2018-08-28T04:07:58.229Z,17.84
2018-08-28T04:08:58.210Z,17.82
2018-08-28T04:09:58.196Z,17.78
2018-08-28T04:10:58.178Z,17.86
2018-08-28T04:11:58.164Z,17.80
2018-08-28T04:12:58.146Z,17.80
2018-08-28T04:13:58.128Z,17.82
2018-08-28T04:14:58.111Z,17.76
2018-08-28T04:15:58.097Z,17.80
2018-08-28T04:16:58.084Z,17.79
2018-08-28T04:17:58.080Z,17.69
2018-08-28T04:18:58.047Z,17.75
2018-08-28T04:19:58.028Z,17.78
2018-08-28T04:20:58.010Z,17.72
2018-08-28T04:21:57.994Z,17.76
2018-08-28T04:22:57.978Z,17.75
2018-08-28T04:23:57.974Z,17.76
2018-08-28T04:24:57.952Z,17.76
2018-08-28T04:25:57.927Z,17.78
2018-08-28T04:26:57.910Z,17.79
2018-08-28T04:27:57.895Z,17.82
2018-08-28T04:28:57.876Z,17.78
2018-08-28T04:29:57.860Z,17.80
2018-08-28T04:30:57.859Z,17.79
2018-08-28T04:31:57.827Z,17.82
2018-08-28T04:32:57.809Z,17.87
2018-08-28T04:33:57.800Z,17.84
2018-08-28T04:34:57.776Z,17.93
2018-08-28T04:35:57.759Z,17.88
2018-08-28T04:36:57.742Z,17.93
2018-08-28T04:37:57.733Z,17.82
2018-08-28T04:38:57.710Z,17.97
2018-08-28T04:39:57.693Z,17.95
2018-08-28T04:40:57.677Z,18.00
2018-08-28T04:41:57.676Z,17.90
2018-08-28T04:42:57.643Z,17.97
2018-08-28T04:43:57.627Z,17.93
2018-08-28T04:44:57.607Z,17.90
2018-08-28T04:45:57.596Z,17.97
2018-08-28T04:46:57.575Z,17.90
2018-08-28T04:47:57.559Z,17.88
2018-08-28T04:48:57.670Z,17.95
2018-08-28T04:49:57.525Z,17.87
2018-08-28T04:50:57.515Z,17.93
2018-08-28T04:51:57.493Z,17.94
2018-08-28T04:52:57.473Z,17.94
2018-08-28T04:53:57.457Z,17.93
2018-08-28T04:54:57.492Z,17.93
2018-08-28T04:55:57.424Z,17.87
2018-08-28T04:56:57.411Z,17.94
2018-08-28T04:57:57.391Z,17.98
2018-08-28T04:58:57.373Z,17.98
2018-08-28T04:59:57.357Z,17.87
2018-08-28T05:00:57.339Z,17.90
2018-08-28T05:01:57.325Z,17.86
2018-08-28T05:02:57.310Z,17.76
2018-08-28T05:03:57.291Z,17.98
2018-08-28T05:04:57.272Z,18.00
2018-08-28T05:05:57.256Z,17.95
2018-08-28T05:06:57.240Z,18.00
2018-08-28T05:07:57.226Z,17.91
2018-08-28T05:08:57.206Z,17.90
2018-08-28T05:09:57.189Z,18.00
2018-08-28T05:10:57.173Z,17.98
2018-08-28T05:11:57.192Z,17.91
2018-08-28T05:12:57.139Z,17.98
2018-08-28T05:13:57.123Z,17.95
2018-08-28T05:14:57.106Z,17.91
2018-08-28T05:15:57.151Z,17.88
2018-08-28T05:16:57.073Z,17.98
2018-08-28T05:17:57.056Z,17.93
2018-08-28T05:18:57.039Z,17.93
2018-08-28T05:19:57.022Z,17.97
2018-08-28T05:20:57.009Z,17.93
2018-08-28T05:21:56.988Z,17.87
2018-08-28T05:22:56.973Z,17.93
2018-08-28T05:23:56.956Z,17.90
2018-08-28T05:24:56.939Z,17.98
2018-08-28T05:25:56.952Z,17.88
2018-08-28T05:26:56.905Z,17.95
2018-08-28T05:27:56.890Z,17.98
2018-08-28T05:28:56.888Z,17.97
2018-08-28T05:29:56.868Z,17.87
2018-08-28T05:30:56.838Z,17.97
2018-08-28T05:31:56.821Z,17.91
2018-08-28T05:32:56.805Z,17.91
2018-08-28T05:33:56.791Z,17.97
2018-08-28T05:34:56.771Z,17.91
2018-08-28T05:35:56.756Z,17.87
2018-08-28T05:36:56.737Z,17.93
2018-08-28T05:37:56.729Z,17.88
2018-08-28T05:38:56.718Z,17.93
2018-08-28T05:39:56.691Z,17.95
2018-08-28T05:40:56.675Z,17.88
2018-08-28T05:41:56.653Z,17.95
2018-08-28T05:42:56.641Z,17.90
2018-08-28T05:43:56.620Z,18.03
2018-08-28T05:44:56.603Z,17.91
2018-08-28T05:45:56.586Z,17.93
2018-08-28T05:46:56.570Z,17.93
2018-08-28T05:47:56.554Z,18.00
2018-08-28T05:48:56.536Z,18.05
2018-08-28T05:49:56.520Z,17.97
2018-08-28T05:50:56.504Z,17.95
2018-08-28T05:51:56.487Z,18.12
2018-08-28T05:52:56.469Z,18.06
2018-08-28T05:53:56.453Z,18.03
2018-08-28T05:54:56.454Z,17.98
2018-08-28T05:55:56.426Z,18.09
2018-08-28T05:56:56.403Z,18.09
2018-08-28T05:57:56.386Z,18.08
2018-08-28T05:58:56.372Z,18.09
2018-08-28T05:59:56.353Z,18.12
2018-08-28T06:00:56.337Z,18.12
2018-08-28T06:01:56.321Z,18.06
2018-08-28T06:02:56.329Z,18.09
2018-08-28T06:03:56.287Z,18.16
2018-08-28T06:04:56.271Z,18.11
2018-08-28T06:05:56.255Z,18.11
2018-08-28T06:06:56.237Z,18.11
2018-08-28T06:07:56.219Z,18.11
2018-08-28T06:08:56.301Z,18.16
2018-08-28T06:09:56.186Z,18.11
2018-08-28T06:10:56.171Z,18.11
2018-08-28T06:11:56.158Z,18.08
2018-08-28T06:12:56.136Z,18.03
2018-08-28T06:13:56.150Z,18.03
2018-08-28T06:14:56.106Z,18.11
2018-08-28T06:15:56.090Z,18.06
2018-08-28T06:16:56.069Z,18.02
2018-08-28T06:17:56.085Z,17.95
2018-08-28T06:18:56.036Z,18.00
2018-08-28T06:19:56.019Z,18.02
2018-08-28T06:20:56.004Z,18.09
2018-08-28T06:21:55.988Z,18.02
2018-08-28T06:22:56.006Z,17.98
2018-08-28T06:23:55.952Z,18.03
2018-08-28T06:24:55.939Z,18.03
2018-08-28T06:25:55.920Z,18.05
2018-08-28T06:26:55.903Z,18.06
2018-08-28T06:27:55.886Z,18.11
2018-08-28T06:28:55.871Z,18.13
2018-08-28T06:29:55.852Z,18.09
2018-08-28T06:30:55.845Z,18.13
2018-08-28T06:31:55.820Z,18.11
2018-08-28T06:32:55.803Z,18.12
2018-08-28T06:33:55.799Z,18.12
2018-08-28T06:34:55.769Z,18.08
2018-08-28T06:35:55.755Z,18.09
2018-08-28T06:36:55.736Z,18.09
2018-08-28T06:37:55.722Z,18.06
2018-08-28T06:38:55.707Z,18.08
2018-08-28T06:39:55.687Z,18.08
2018-08-28T06:40:55.669Z,18.16
2018-08-28T06:41:55.653Z,18.13
2018-08-28T06:42:55.636Z,18.13
2018-08-28T06:43:55.662Z,18.12
2018-08-28T06:44:55.603Z,18.27
2018-08-28T06:45:55.585Z,18.26
2018-08-28T06:46:55.571Z,18.30
2018-08-28T06:47:55.565Z,18.33
2018-08-28T06:48:55.535Z,18.37
2018-08-28T06:49:55.520Z,18.34
2018-08-28T06:50:55.502Z,18.34
2018-08-28T06:51:55.488Z,18.34
2018-08-28T06:52:55.470Z,18.34
2018-08-28T06:53:55.454Z,18.37
2018-08-28T06:54:55.437Z,18.36
2018-08-28T06:55:55.420Z,18.36
2018-08-28T06:56:55.513Z,18.37
2018-08-28T06:57:55.388Z,18.42
2018-08-28T06:58:55.375Z,18.36
2018-08-28T06:59:55.356Z,18.31
2018-08-28T07:00:55.340Z,18.41
2018-08-28T07:01:55.321Z,18.36
2018-08-28T07:02:55.304Z,18.34
2018-08-28T07:03:55.321Z,18.41
2018-08-28T07:04:55.271Z,18.41
2018-08-28T07:05:55.312Z,18.43
2018-08-28T07:06:55.238Z,18.42
2018-08-28T07:07:55.273Z,18.41
2018-08-28T07:08:55.204Z,18.34
2018-08-28T07:09:55.189Z,18.43
2018-08-28T07:10:55.185Z,18.34
2018-08-28T07:11:55.157Z,18.46
2018-08-28T07:12:55.141Z,18.41
2018-08-28T07:13:55.130Z,18.41
2018-08-28T07:14:55.105Z,18.48
2018-08-28T07:15:55.153Z,18.48
2018-08-28T07:16:55.088Z,18.42
2018-08-28T07:17:55.055Z,18.58
2018-08-28T07:18:55.042Z,18.58
2018-08-28T07:19:55.054Z,18.61
2018-08-28T07:20:55.019Z,18.64
2018-08-28T07:21:54.994Z,18.66
2018-08-28T07:22:54.975Z,18.60
2018-08-28T07:23:54.958Z,18.60
2018-08-28T07:24:54.943Z,18.60
2018-08-28T07:25:54.973Z,18.61
2018-08-28T07:26:54.918Z,18.63
2018-08-28T07:27:54.893Z,18.66
2018-08-28T07:28:54.877Z,18.70
2018-08-28T07:29:54.858Z,18.67
2018-08-28T07:30:54.841Z,18.66
2018-08-28T07:31:54.916Z,18.71
2018-08-28T07:32:54.809Z,18.76
2018-08-28T07:33:54.793Z,18.73
2018-08-28T07:34:54.781Z,18.71
2018-08-28T07:35:54.759Z,18.78
2018-08-28T07:36:54.744Z,18.74
2018-08-28T07:37:54.727Z,18.74
2018-08-28T07:38:54.710Z,18.71
2018-08-28T07:39:54.694Z,18.74
2018-08-28T07:40:54.684Z,18.67
2018-08-28T07:41:54.662Z,18.66
2018-08-28T07:42:54.712Z,18.73
2018-08-28T07:43:54.633Z,18.57
2018-08-28T07:44:54.647Z,18.61
2018-08-28T07:45:54.596Z,18.61
2018-08-28T07:46:54.584Z,18.68
2018-08-28T07:47:54.566Z,18.66
2018-08-28T07:48:54.548Z,18.68
2018-08-28T07:49:54.533Z,18.70
2018-08-28T07:50:54.518Z,18.64
2018-08-28T07:51:54.499Z,18.68
2018-08-28T07:52:54.487Z,18.66
2018-08-28T07:53:54.565Z,18.76
2018-08-28T07:54:54.449Z,18.78
2018-08-28T07:55:54.432Z,18.76
2018-08-28T07:56:54.415Z,18.78
2018-08-28T07:57:54.400Z,18.79
2018-08-28T07:58:54.384Z,18.76
2018-08-28T07:59:54.369Z,18.73
2018-08-28T08:00:54.351Z,18.71
2018-08-28T08:01:54.336Z,18.83
2018-08-28T08:02:54.318Z,18.79
2018-08-28T08:03:54.302Z,18.85
2018-08-28T08:04:54.285Z,18.83
2018-08-28T08:05:54.270Z,18.86
2018-08-28T08:06:54.252Z,18.89
2018-08-28T08:07:54.237Z,18.98
2018-08-28T08:08:54.220Z,18.85
2018-08-28T08:09:54.236Z,18.88
2018-08-28T08:10:54.189Z,19.00
2018-08-28T08:11:54.191Z,19.07
2018-08-28T08:12:54.157Z,19.05
2018-08-28T08:13:54.140Z,19.15
2018-08-28T08:14:54.122Z,19.04
2018-08-28T08:15:54.107Z,19.15
2018-08-28T08:16:54.090Z,19.20
2018-08-28T08:17:54.078Z,19.09
2018-08-28T08:18:54.058Z,19.08
2018-08-28T08:19:54.053Z,19.11
2018-08-28T08:20:54.027Z,19.05
2018-08-28T08:21:54.009Z,19.09
2018-08-28T08:22:53.993Z,19.20
2018-08-28T08:23:53.988Z,19.23
2018-08-28T08:24:53.960Z,19.16
2018-08-28T08:25:53.943Z,19.20
2018-08-28T08:26:53.928Z,19.22
2018-08-28T08:27:53.995Z,19.15
2018-08-28T08:28:53.896Z,19.20
2018-08-28T08:29:53.880Z,19.16
2018-08-28T08:30:53.864Z,19.16
2018-08-28T08:31:53.848Z,19.23
2018-08-28T08:32:53.832Z,19.26
2018-08-28T08:33:53.816Z,19.30
2018-08-28T08:34:53.804Z,19.29
2018-08-28T08:35:53.797Z,19.27
2018-08-28T08:36:53.773Z,19.35
2018-08-28T08:37:53.751Z,19.37
2018-08-28T08:38:53.894Z,19.39
2018-08-28T08:39:53.720Z,19.34
2018-08-28T08:40:53.702Z,19.45
2018-08-28T08:41:53.761Z,19.42
2018-08-28T08:42:53.687Z,19.45
2018-08-28T08:43:53.654Z,19.52
2018-08-28T08:44:53.637Z,19.48
2018-08-28T08:45:53.623Z,19.45
2018-08-28T08:46:53.612Z,19.52
2018-08-28T08:47:53.591Z,19.49
2018-08-28T08:48:53.873Z,19.49
2018-08-28T08:49:53.792Z,19.55
2018-08-28T08:50:53.542Z,19.56
2018-08-28T08:51:53.532Z,19.64
2018-08-28T08:52:53.510Z,19.60
2018-08-28T08:53:53.494Z,19.62
2018-08-28T08:54:53.513Z,19.62
2018-08-28T08:55:53.462Z,19.70
2018-08-28T08:56:53.446Z,19.62
2018-08-28T08:57:53.430Z,19.72
2018-08-28T08:58:53.415Z,19.71
2018-08-28T08:59:53.399Z,19.71
2018-08-28T09:00:53.391Z,19.75
2018-08-28T09:01:53.367Z,19.79
2018-08-28T09:02:53.351Z,19.79
2018-08-28T09:03:53.335Z,19.79
2018-08-28T09:04:53.326Z,19.78
2018-08-28T09:05:53.307Z,19.84
2018-08-28T09:06:53.292Z,19.84
2018-08-28T09:07:53.287Z,19.74
2018-08-28T09:08:53.255Z,19.82
2018-08-28T09:09:53.263Z,19.72
2018-08-28T09:10:53.224Z,19.81
2018-08-28T09:11:53.212Z,19.84
2018-08-28T09:12:53.193Z,19.79
2018-08-28T09:13:53.178Z,19.92
2018-08-28T09:14:53.163Z,19.90
2018-08-28T09:15:53.146Z,19.89
2018-08-28T09:16:53.129Z,19.92
2018-08-28T09:17:53.115Z,19.93
2018-08-28T09:18:53.116Z,19.94
2018-08-28T09:19:53.082Z,20.03
2018-08-28T09:20:53.071Z,20.00
2018-08-28T09:21:53.086Z,20.03
2018-08-28T09:22:53.042Z,20.03
2018-08-28T09:23:53.060Z,20.08
2018-08-28T09:24:53.471Z,20.15
2018-08-28T09:25:52.992Z,20.08
2018-08-28T09:26:52.973Z,20.11
2018-08-28T09:27:52.959Z,20.19
2018-08-28T09:28:52.941Z,20.24
2018-08-28T09:29:52.927Z,20.27
2018-08-28T09:30:52.911Z,20.19
2018-08-28T09:31:52.895Z,20.27
2018-08-28T09:32:52.880Z,20.18
2018-08-28T09:33:52.863Z,20.26
2018-08-28T09:34:52.848Z,20.21
2018-08-28T09:35:52.833Z,20.26
2018-08-28T09:36:52.815Z,20.24
2018-08-28T09:37:52.800Z,20.29
2018-08-28T09:38:52.930Z,20.27
2018-08-28T09:39:52.770Z,20.29
2018-08-28T09:40:52.753Z,20.22
2018-08-28T09:41:52.740Z,20.29
2018-08-28T09:42:52.722Z,20.29
2018-08-28T09:43:52.849Z,20.32
2018-08-28T09:44:52.692Z,20.36
2018-08-28T09:45:52.679Z,20.40
2018-08-28T09:46:52.661Z,20.39
2018-08-28T09:47:52.670Z,20.34
2018-08-28T09:48:52.629Z,20.39
2018-08-28T09:49:52.658Z,20.33
2018-08-28T09:50:52.613Z,20.21
2018-08-28T09:51:52.587Z,20.27
2018-08-28T09:52:52.569Z,20.27
2018-08-28T09:53:52.597Z,20.24
2018-08-28T09:54:52.542Z,20.26
2018-08-28T09:55:52.529Z,20.18
2018-08-28T09:56:52.506Z,20.17
2018-08-28T09:57:52.490Z,20.22
2018-08-28T09:58:52.479Z,20.26
2018-08-28T09:59:52.463Z,20.22
2018-08-28T10:00:52.445Z,20.18
2018-08-28T10:01:52.429Z,20.15
2018-08-28T10:02:52.413Z,20.17
2018-08-28T10:03:52.397Z,20.17
2018-08-28T10:04:52.393Z,20.15
2018-08-28T10:05:52.364Z,20.19
2018-08-28T10:06:52.350Z,20.15
2018-08-28T10:07:52.383Z,20.24
2018-08-28T10:08:52.325Z,20.19
2018-08-28T10:09:52.303Z,20.18
2018-08-28T10:10:52.298Z,20.21
2018-08-28T10:11:52.273Z,20.19
2018-08-28T10:12:52.254Z,20.22
2018-08-28T10:13:52.239Z,20.19
2018-08-28T10:14:52.223Z,20.19
2018-08-28T10:15:52.209Z,20.04
2018-08-28T10:16:52.191Z,20.10
2018-08-28T10:17:52.176Z,20.15
2018-08-28T10:18:52.166Z,20.10
2018-08-28T10:19:52.146Z,20.10
2018-08-28T10:20:52.168Z,20.07
2018-08-28T10:21:52.113Z,20.07
2018-08-28T10:22:52.124Z,20.17
2018-08-28T10:23:52.082Z,20.12
2018-08-28T10:24:52.065Z,20.12
2018-08-28T10:25:52.051Z,20.14
2018-08-28T10:26:52.078Z,20.17
2018-08-28T10:27:52.021Z,20.18
2018-08-28T10:28:52.002Z,20.21
2018-08-28T10:29:52.007Z,20.08
2018-08-28T10:30:51.982Z,20.03
2018-08-28T10:31:51.959Z,20.14
2018-08-28T10:32:51.944Z,20.18
2018-08-28T10:33:51.924Z,20.14
2018-08-28T10:34:51.911Z,20.18
2018-08-28T10:35:51.892Z,20.21
2018-08-28T10:36:51.878Z,20.19
2018-08-28T10:37:51.860Z,20.18
2018-08-28T10:38:51.847Z,20.22
2018-08-28T10:39:51.834Z,20.26
2018-08-28T10:40:51.823Z,20.21
2018-08-28T10:41:51.799Z,20.24
2018-08-28T10:42:51.783Z,20.26
2018-08-28T10:43:51.769Z,20.19
2018-08-28T10:44:51.751Z,20.27
2018-08-28T10:45:51.764Z,20.26
2018-08-28T10:46:51.911Z,20.18
2018-08-28T10:47:51.704Z,20.24
2018-08-28T10:48:51.688Z,20.21
2018-08-28T10:49:51.673Z,20.21
2018-08-28T10:50:51.657Z,20.29
2018-08-28T10:51:51.647Z,20.26
2018-08-28T10:52:51.631Z,20.32
2018-08-28T10:53:51.609Z,20.29
2018-08-28T10:54:51.594Z,20.32
2018-08-28T10:55:51.580Z,20.32
2018-08-28T10:56:51.562Z,20.24
2018-08-28T10:57:51.546Z,20.32
2018-08-28T10:58:51.540Z,20.29
2018-08-28T10:59:51.517Z,20.36
2018-08-28T11:00:51.500Z,20.37
2018-08-28T11:01:51.502Z,20.37
2018-08-28T11:02:51.469Z,20.37
2018-08-28T11:03:51.454Z,20.39
2018-08-28T11:04:51.437Z,20.50
2018-08-28T11:05:51.422Z,20.53
2018-08-28T11:06:51.406Z,20.50
2018-08-28T11:07:51.392Z,20.59
2018-08-28T11:08:51.452Z,20.59
2018-08-28T11:09:51.360Z,20.58
2018-08-28T11:10:51.345Z,20.67
2018-08-28T11:11:51.336Z,20.53
2018-08-28T11:12:51.315Z,20.59
2018-08-28T11:13:51.297Z,20.60
2018-08-28T11:14:51.283Z,20.60
2018-08-28T11:15:51.266Z,20.68
2018-08-28T11:16:51.251Z,20.63
2018-08-28T11:17:51.234Z,20.67
2018-08-28T11:18:51.223Z,20.64
2018-08-28T11:19:51.204Z,20.64
2018-08-28T11:20:51.188Z,20.77
2018-08-28T11:21:51.179Z,20.75
2018-08-28T11:22:51.197Z,20.83
2018-08-28T11:23:51.142Z,20.80
2018-08-28T11:24:51.126Z,20.80
2018-08-28T11:25:51.112Z,20.93
2018-08-28T11:26:51.098Z,20.93
2018-08-28T11:27:51.084Z,20.96
2018-08-28T11:28:51.069Z,21.03
2018-08-28T11:29:51.050Z,21.10
2018-08-28T11:30:51.045Z,21.20
2018-08-28T11:31:51.021Z,21.28
2018-08-28T11:32:51.004Z,21.40
2018-08-28T11:33:50.994Z,21.51
2018-08-28T11:34:50.974Z,21.45
2018-08-28T11:35:51.046Z,21.59
2018-08-28T11:36:50.943Z,21.74
2018-08-28T11:37:50.930Z,21.72
2018-08-28T11:38:50.917Z,21.89
2018-08-28T11:39:50.899Z,21.94
2018-08-28T11:40:50.884Z,22.01
2018-08-28T11:41:50.895Z,22.01
2018-08-28T11:42:50.855Z,22.16
2018-08-28T11:43:50.839Z,22.22
2018-08-28T11:44:50.824Z,22.43
2018-08-28T11:45:50.809Z,22.41
2018-08-28T11:46:50.803Z,22.47
2018-08-28T11:47:50.796Z,22.44
2018-08-28T11:48:50.766Z,22.44
2018-08-28T11:49:50.751Z,22.41
2018-08-28T11:50:50.736Z,22.46
2018-08-28T11:51:50.723Z,22.51
2018-08-28T11:52:50.707Z,22.51
2018-08-28T11:53:50.702Z,22.49
2018-08-28T11:54:50.678Z,22.43
2018-08-28T11:55:50.666Z,22.44
2018-08-28T11:56:50.649Z,22.36
2018-08-28T11:57:50.635Z,22.44
2018-08-28T11:58:50.620Z,22.44
2018-08-28T11:59:50.606Z,22.43
2018-08-28T12:00:50.590Z,22.46
2018-08-28T12:01:50.583Z,22.58
2018-08-28T12:02:50.565Z,22.59
2018-08-28T12:03:50.549Z,22.68
2018-08-28T12:04:50.554Z,22.62
2018-08-28T12:05:50.519Z,22.52
2018-08-28T12:06:50.595Z,22.37
2018-08-28T12:07:50.570Z,22.19
2018-08-28T12:08:50.476Z,22.15
2018-08-28T12:09:50.462Z,22.08
2018-08-28T12:10:50.450Z,22.41
2018-08-28T12:11:50.444Z,22.67
2018-08-28T12:12:50.458Z,22.95
2018-08-28T12:13:50.407Z,23.04
2018-08-28T12:14:50.396Z,22.65
2018-08-28T12:15:50.377Z,22.58
2018-08-28T12:16:50.364Z,22.59
2018-08-28T12:17:50.347Z,22.63
2018-08-28T12:18:50.335Z,22.47
2018-08-28T12:19:50.319Z,22.49
2018-08-28T12:20:50.345Z,22.55
2018-08-28T12:21:50.292Z,22.52
2018-08-28T12:22:50.280Z,22.62
2018-08-28T12:23:50.262Z,22.91
2018-08-28T12:24:50.248Z,22.98
2018-08-28T12:25:50.242Z,23.21
2018-08-28T12:26:50.305Z,23.25
2018-08-28T12:27:50.206Z,23.18
2018-08-28T12:28:50.192Z,23.62
2018-08-28T12:29:50.178Z,24.03
2018-08-28T12:30:50.164Z,24.11
2018-08-28T12:31:50.151Z,24.13
2018-08-28T12:32:50.136Z,24.16
2018-08-28T12:33:50.121Z,24.16
2018-08-28T12:34:50.109Z,24.16
2018-08-28T12:35:50.109Z,24.09
2018-08-28T12:36:50.230Z,23.82
2018-08-28T12:37:50.095Z,23.76
2018-08-28T12:38:50.053Z,23.69
2018-08-28T12:39:50.040Z,23.77
2018-08-28T12:40:50.031Z,23.82
2018-08-28T12:41:50.017Z,23.91
2018-08-28T12:42:49.999Z,24.26
2018-08-28T12:43:50.036Z,24.50
2018-08-28T12:44:49.979Z,24.93
2018-08-28T12:45:49.958Z,25.04
2018-08-28T12:46:49.952Z,25.49
2018-08-28T12:47:49.932Z,25.91
2018-08-28T12:48:49.918Z,26.24
2018-08-28T12:49:49.904Z,26.46
2018-08-28T12:50:49.896Z,26.64
2018-08-28T12:51:49.879Z,26.61